This is the latest recevied weather packets stored in our database for station/object LEMD. If no packets are shown the sender has not sent any weather packets the latest 10 day(s).
| Time | Temp. | Humidity | Pressure | Rain* | Wind** | Luminosity | Snow |
|---|---|---|---|---|---|---|---|
| 1777583703 | 16.11° C | 55% | 1017 hPa | - | - | - | - |
| 1777579205 | 17.78° C | 48% | 1016 hPa | - | - | - | - |
| 1777578303 | 17.78° C | 48% | 1016 hPa | - | - | - | - |
| 1777577405 | 20° C | 42% | 1016 hPa | - | - | - | - |
| 1777576504 | 20° C | 42% | 1016 hPa | - | - | - | - |
| 1777575604 | 20° C | 42% | 1016 hPa | - | - | - | - |
| 1777574704 | 20° C | 42% | 1016 hPa | - | - | - | - |
| 1777571104 | 22.22° C | 35% | 1016 hPa | - | - | - | - |
| 1777570204 | 22.22° C | 35% | 1016 hPa | - | - | - | - |
| 1777567504 | 21.11° C | 37% | 1016 hPa | - | - | - | - |
| 1777566604 | 21.11° C | 35% | 1016 hPa | - | - | - | - |
| 1777565704 | 21.11° C | 35% | 1016 hPa | - | - | - | - |
| 1777563904 | 21.11° C | 37% | 1016 hPa | - | - | - | - |
| 1777559404 | 21.11° C | 40% | 1017 hPa | - | - | - | - |
| 1777558504 | 21.11° C | 40% | 1017 hPa | - | - | - | - |
| 1777556704 | 20° C | 40% | 1017 hPa | - | - | - | - |
| 1777555803 | 20° C | 40% | 1017 hPa | - | - | - | - |
| 1777554005 | 18.89° C | 42% | 1017 hPa | - | - | - | - |
| 1777551304 | 18.89° C | 45% | 1017 hPa | - | - | - | - |
| 1777550405 | 18.89° C | 42% | 1017 hPa | - | - | - | - |
| 1777549504 | 18.89° C | 42% | 1017 hPa | - | - | - | - |
| 1777546804 | 17.22° C | 48% | 1017 hPa | - | - | - | - |
| 1777545005 | 17.78° C | 52% | 1017 hPa | - | - | - | - |
| 1777544105 | 17.78° C | 52% | 1017 hPa | - | - | - | - |
| 1777540504 | 16.11° C | 67% | 1017 hPa | - | - | - | - |
* Rain since midnight (hover to see other rain measurements)
** Current wind speed in m/s (hover to see current wind gust speed)